Buscolante III — HBY4411 — position and weather

sailwx.info

Track history (hours):
 
Tides and Currents Weather Stations Pressure Air Temp Water Temp Dewpoint Dewpoint Depression Visibility Wind Speed Wind Dir Waves Ship Positions

Buscolante III

Last reported at 2017-Aug-13 09:30 UTC. Time now 2017-Aug-20 06:08 UTC.
Position N 44°25' E 008°56'.

Length 15 m.

Type: Sailing vessel. MMSI: 269102760.

Date/timePositionNaut miles runAvg speedWind from/ knotsBaromVisibWave heightAir tempDewpointWater temp
2017-Aug-13 09:30N 44°25' E 008°56'0 0.0
2017-Aug-13 09:00N 44°25' E 008°56'1 2.6
2017-Aug-13 08:30N 44°23' E 008°56'1 2.1
2017-Aug-13 08:00N 44°24' E 008°55'  
2017-Aug-09 18:00N 44°25' E 008°56'0 0.0
2017-Aug-09 17:30N 44°25' E 008°56'0 0.0
2017-Aug-09 17:00N 44°25' E 008°56'0 0.0
2017-Aug-09 16:30N 44°25' E 008°56'1 2.2
2017-Aug-09 16:00N 44°24' E 008°56'3 6.4
2017-Aug-09 15:30N 44°21' E 008°59'4 7.3
2017-Aug-09 14:59N 44°18' E 009°01'4 7.3
2017-Aug-09 14:23N 44°14' E 009°03'3 7.4
2017-Aug-09 14:00N 44°11' E 009°05'4 7.3
2017-Aug-09 13:30N 44°08' E 009°07'4 7.4
2017-Aug-09 13:00N 44°05' E 009°10'4 7.4
2017-Aug-09 12:29N 44°01' E 009°12'4 7.5
2017-Aug-09 11:59N 43°58' E 009°15'4 7.6
2017-Aug-09 11:30N 43°55' E 009°17'4 7.7
2017-Aug-09 11:00N 43°51' E 009°19'4 7.7
2017-Aug-09 10:28N 43°47' E 009°22'3 7.6
2017-Aug-09 10:00N 43°44' E 009°24'4 7.4
2017-Aug-09 09:30N 43°41' E 009°26'4 7.2
2017-Aug-09 09:00N 43°38' E 009°29'4 7.1
2017-Aug-09 08:30N 43°35' E 009°31'4 6.9
2017-Aug-09 07:59N 43°31' E 009°33'4 6.9
2017-Aug-09 07:28N 43°28' E 009°35'15 6.8
2017-Aug-09 05:16N 43°15' E 009°44'3 7.0
2017-Aug-09 04:51N 43°12' E 009°46'2 6.8
2017-Aug-09 04:30N 43°10' E 009°47'3 6.7
2017-Aug-09 04:00N 43°07' E 009°49'4 0.3
2017-Aug-08 13:14N 43°03' E 009°50'2 0.8
2017-Aug-08 09:59N 43°01' E 009°51'  
2017-Aug-05 11:14N 41°18' E 012°36'2 6.9
2017-Aug-05 10:56N 41°17' E 012°37'74 1.6
2017-Aug-03 13:19N 40°42' E 014°04'1 4.2
2017-Aug-03 13:00N 40°41' E 014°05'2 4.6
2017-Aug-03 12:30N 40°40' E 014°08'3 5.7
2017-Aug-03 12:00N 40°38' E 014°11'3 6.2
2017-Aug-03 11:29N 40°36' E 014°14'3 6.9
2017-Aug-03 11:00N 40°34' E 014°17'  
Track history (hours):
 
Tides and Currents Weather Stations Pressure Air Temp Water Temp Dewpoint Dewpoint Depression Visibility Wind Speed Wind Dir Waves Ship Positions

Buscolante III

Last reported at 2017-Aug-13 09:30 UTC. Time now 2017-Aug-20 06:08 UTC.
Position N 44°25' E 008°56'.

Length 15 m.

Type: Sailing vessel. MMSI: 269102760.

Date/timePositionNaut miles runAvg speedWind from/ knotsBaromVisibWave heightAir tempDewpointWater temp
2017-Aug-13 09:30N 44°25' E 008°56'0 0.0
2017-Aug-13 09:00N 44°25' E 008°56'1 2.6
2017-Aug-13 08:30N 44°23' E 008°56'1 2.1
2017-Aug-13 08:00N 44°24' E 008°55'  
2017-Aug-09 18:00N 44°25' E 008°56'0 0.0
2017-Aug-09 17:30N 44°25' E 008°56'0 0.0
2017-Aug-09 17:00N 44°25' E 008°56'0 0.0
2017-Aug-09 16:30N 44°25' E 008°56'1 2.2
2017-Aug-09 16:00N 44°24' E 008°56'3 6.4
2017-Aug-09 15:30N 44°21' E 008°59'4 7.3
2017-Aug-09 14:59N 44°18' E 009°01'4 7.3
2017-Aug-09 14:23N 44°14' E 009°03'3 7.4
2017-Aug-09 14:00N 44°11' E 009°05'4 7.3
2017-Aug-09 13:30N 44°08' E 009°07'4 7.4
2017-Aug-09 13:00N 44°05' E 009°10'4 7.4
2017-Aug-09 12:29N 44°01' E 009°12'4 7.5
2017-Aug-09 11:59N 43°58' E 009°15'4 7.6
2017-Aug-09 11:30N 43°55' E 009°17'4 7.7
2017-Aug-09 11:00N 43°51' E 009°19'4 7.7
2017-Aug-09 10:28N 43°47' E 009°22'3 7.6
2017-Aug-09 10:00N 43°44' E 009°24'4 7.4
2017-Aug-09 09:30N 43°41' E 009°26'4 7.2
2017-Aug-09 09:00N 43°38' E 009°29'4 7.1
2017-Aug-09 08:30N 43°35' E 009°31'4 6.9
2017-Aug-09 07:59N 43°31' E 009°33'4 6.9
2017-Aug-09 07:28N 43°28' E 009°35'15 6.8
2017-Aug-09 05:16N 43°15' E 009°44'3 7.0
2017-Aug-09 04:51N 43°12' E 009°46'2 6.8
2017-Aug-09 04:30N 43°10' E 009°47'3 6.7
2017-Aug-09 04:00N 43°07' E 009°49'4 0.3
2017-Aug-08 13:14N 43°03' E 009°50'2 0.8
2017-Aug-08 09:59N 43°01' E 009°51'  
2017-Aug-05 11:14N 41°18' E 012°36'2 6.9
2017-Aug-05 10:56N 41°17' E 012°37'74 1.6
2017-Aug-03 13:19N 40°42' E 014°04'1 4.2
2017-Aug-03 13:00N 40°41' E 014°05'2 4.6
2017-Aug-03 12:30N 40°40' E 014°08'3 5.7
2017-Aug-03 12:00N 40°38' E 014°11'3 6.2
2017-Aug-03 11:29N 40°36' E 014°14'3 6.9
2017-Aug-03 11:00N 40°34' E 014°17'  

Dump ship's entire track history